createdAt,value
2018-10-21T00:00:29.505Z,12.17
2018-10-21T00:02:56.955Z,13.60
2018-10-21T00:05:24.316Z,14.73
2018-10-21T00:07:51.709Z,13.90
2018-10-21T00:10:19.073Z,18.17
2018-10-21T00:12:46.460Z,11.67
2018-10-21T00:15:13.973Z,15.53
2018-10-21T00:17:41.325Z,18.03
2018-10-21T00:20:09.069Z,14.30
2018-10-21T00:22:36.572Z,15.80
2018-10-21T00:25:04.469Z,14.03
2018-10-21T00:27:31.837Z,12.17
2018-10-21T00:29:59.225Z,18.67
2018-10-21T00:32:31.884Z,12.77
2018-10-21T00:34:59.328Z,16.03
2018-10-21T00:37:26.674Z,17.23
2018-10-21T00:39:54.031Z,16.00
2018-10-21T00:42:21.440Z,18.33
2018-10-21T00:44:48.949Z,14.43
2018-10-21T00:47:16.298Z,19.27
2018-10-21T00:49:43.684Z,15.30
2018-10-21T00:52:11.056Z,16.77
2018-10-21T00:54:38.404Z,17.77
2018-10-21T00:57:05.811Z,19.63
2018-10-21T00:59:33.164Z,12.47
2018-10-21T01:02:00.509Z,14.73
2018-10-21T01:04:27.940Z,19.60
2018-10-21T01:06:55.326Z,12.37
2018-10-21T01:09:22.821Z,15.30
2018-10-21T01:11:50.229Z,17.53
2018-10-21T01:14:17.586Z,12.90
2018-10-21T01:16:44.964Z,17.90
2018-10-21T01:19:12.353Z,15.17
2018-10-21T01:21:39.712Z,15.20
2018-10-21T01:24:07.121Z,15.30
2018-10-21T01:26:34.796Z,15.30
2018-10-21T01:29:02.243Z,16.83
2018-10-21T01:31:29.597Z,16.37
2018-10-21T01:33:57.078Z,12.63
2018-10-21T01:36:24.600Z,14.60
2018-10-21T01:38:51.812Z,17.60
2018-10-21T01:41:19.338Z,14.27
2018-10-21T01:43:46.684Z,15.37
2018-10-21T01:46:14.035Z,13.13
2018-10-21T01:48:41.427Z,11.90
2018-10-21T01:51:08.844Z,14.60
2018-10-21T01:53:36.147Z,13.10
2018-10-21T01:56:03.572Z,15.90
2018-10-21T01:58:30.938Z,12.87
2018-10-21T02:00:58.669Z,16.10
2018-10-21T02:03:26.055Z,12.40
2018-10-21T02:05:53.473Z,13.93
2018-10-21T02:08:20.861Z,21.60
2018-10-21T02:10:48.315Z,14.17
2018-10-21T02:13:15.734Z,12.43
2018-10-21T02:15:43.097Z,17.13
2018-10-21T02:18:10.488Z,15.37
2018-10-21T02:20:37.836Z,13.83
2018-10-21T02:23:05.271Z,16.67
2018-10-21T02:25:32.696Z,12.60
2018-10-21T02:28:00.040Z,10.97
2018-10-21T02:30:28.397Z,14.20
2018-10-21T02:32:56.463Z,10.37
2018-10-21T02:35:23.897Z,14.77
2018-10-21T02:37:51.841Z,12.70
2018-10-21T02:41:24.657Z,17.63
2018-10-21T02:43:52.005Z,11.90
2018-10-21T02:46:20.077Z,14.37
2018-10-21T02:48:47.477Z,20.30
2018-10-21T02:51:14.938Z,13.17
2018-10-21T02:53:42.340Z,12.50
2018-10-21T02:56:10.756Z,13.67
2018-10-21T02:58:38.708Z,9.87
2018-10-21T03:01:06.125Z,14.70
2018-10-21T03:03:33.728Z,13.13
2018-10-21T03:06:01.165Z,9.67
2018-10-21T03:08:28.520Z,13.67
2018-10-21T03:10:55.927Z,14.67
2018-10-21T03:13:23.644Z,14.63
2018-10-21T03:15:51.069Z,17.07
2018-10-21T03:18:18.503Z,17.00
2018-10-21T03:20:45.871Z,17.17
2018-10-21T03:23:13.578Z,19.53
2018-10-21T03:25:41.238Z,16.30
2018-10-21T03:28:08.600Z,17.43
2018-10-21T03:30:36.145Z,18.50
2018-10-21T03:33:03.578Z,13.40
2018-10-21T03:35:31.097Z,18.80
2018-10-21T03:37:58.697Z,16.37
2018-10-21T03:40:26.081Z,22.07
2018-10-21T03:42:53.913Z,18.03
2018-10-21T03:45:21.281Z,22.10
2018-10-21T03:47:48.958Z,16.97
2018-10-21T03:50:16.417Z,18.03
2018-10-21T03:52:43.764Z,16.40
2018-10-21T03:55:11.156Z,18.40
2018-10-21T03:57:38.581Z,14.43
2018-10-21T04:00:06.676Z,16.93
2018-10-21T04:02:34.058Z,17.50
2018-10-21T04:05:01.410Z,15.93
2018-10-21T04:07:28.789Z,18.97
2018-10-21T04:09:56.218Z,23.40
2018-10-21T04:12:23.583Z,18.73
2018-10-21T04:14:50.938Z,20.37
2018-10-21T04:17:18.336Z,18.27
2018-10-21T04:19:45.694Z,22.57
2018-10-21T04:22:13.091Z,21.43
2018-10-21T04:24:40.452Z,21.40
2018-10-21T04:27:07.806Z,19.43
2018-10-21T04:29:35.180Z,25.10
2018-10-21T04:32:02.581Z,24.90
2018-10-21T04:34:29.932Z,21.60
2018-10-21T04:37:02.752Z,25.23
2018-10-21T04:40:34.340Z,25.33
2018-10-21T04:43:01.724Z,24.33
2018-10-21T04:45:29.077Z,20.23
2018-10-21T04:47:56.421Z,23.50
2018-10-21T04:50:23.805Z,22.47
2018-10-21T04:52:51.228Z,20.53
2018-10-21T04:55:18.605Z,21.80
2018-10-21T04:57:47.117Z,29.87
2018-10-21T05:00:17.232Z,17.13
2018-10-21T05:02:44.625Z,20.10
2018-10-21T05:05:13.180Z,18.13
2018-10-21T05:07:40.870Z,19.40
2018-10-21T05:10:11.696Z,17.13
2018-10-21T05:12:39.029Z,18.83
2018-10-21T05:15:06.464Z,15.73
2018-10-21T05:17:33.804Z,20.17
2018-10-21T05:20:01.175Z,19.60
2018-10-21T05:22:28.533Z,16.27
2018-10-21T05:24:55.942Z,19.53
2018-10-21T05:27:23.314Z,20.87
2018-10-21T05:29:50.668Z,14.47
2018-10-21T05:32:18.011Z,17.43
2018-10-21T05:34:45.610Z,18.17
2018-10-21T05:37:13.005Z,15.23
2018-10-21T05:39:40.365Z,14.47
2018-10-21T05:42:07.766Z,17.00
2018-10-21T05:44:35.176Z,15.13
2018-10-21T05:47:02.590Z,15.30
2018-10-21T05:49:29.957Z,19.30
2018-10-21T05:51:57.395Z,20.03
2018-10-21T05:54:24.753Z,18.10
2018-10-21T05:56:52.127Z,15.17
2018-10-21T05:59:19.537Z,13.57
2018-10-21T06:01:47.676Z,15.03
2018-10-21T06:04:16.062Z,16.53
2018-10-21T06:06:43.624Z,22.00
2018-10-21T06:09:12.337Z,24.03
2018-10-21T06:11:39.854Z,24.83
2018-10-21T06:14:07.345Z,17.77
2018-10-21T06:17:10.294Z,16.93
2018-10-21T06:19:42.634Z,20.40
2018-10-21T06:22:10.294Z,14.80
2018-10-21T06:24:37.617Z,19.27
2018-10-21T06:27:05.169Z,15.10
2018-10-21T06:29:32.561Z,18.37
2018-10-21T06:31:59.928Z,12.53
2018-10-21T06:34:27.301Z,19.07
2018-10-21T06:36:54.858Z,18.33
2018-10-21T06:39:22.221Z,12.07
2018-10-21T06:41:49.601Z,13.53
2018-10-21T06:44:17.129Z,15.93
2018-10-21T06:46:44.496Z,15.00
2018-10-21T06:49:11.857Z,19.60
2018-10-21T06:51:39.345Z,17.03
2018-10-21T06:54:06.765Z,20.87
2018-10-21T06:56:34.255Z,17.97
2018-10-21T06:59:01.526Z,21.87
2018-10-21T07:01:29.582Z,19.43
2018-10-21T07:03:57.073Z,19.53
2018-10-21T07:06:26.381Z,16.17
2018-10-21T07:08:55.956Z,18.20
2018-10-21T07:11:23.358Z,21.77
2018-10-21T07:13:50.753Z,22.23
2018-10-21T07:16:18.299Z,18.57
2018-10-21T07:25:33.018Z,13.93
2018-10-21T07:28:00.521Z,16.83
2018-10-21T07:30:29.133Z,24.67
2018-10-21T07:32:57.997Z,16.37
2018-10-21T07:35:25.566Z,21.10
2018-10-21T07:37:52.951Z,20.33
2018-10-21T07:40:20.359Z,28.93
2018-10-21T07:42:47.770Z,45.33
2018-10-21T07:45:17.765Z,37.90
2018-10-21T07:47:45.158Z,26.70
2018-10-21T07:50:12.517Z,17.80
2018-10-21T07:52:39.929Z,21.70
2018-10-21T07:55:07.426Z,21.43
2018-10-21T07:57:34.819Z,17.70
2018-10-21T08:00:02.214Z,17.87
2018-10-21T08:02:29.635Z,20.07
2018-10-21T08:04:57.086Z,22.10
2018-10-21T08:07:29.961Z,19.33
2018-10-21T08:09:57.505Z,23.87
2018-10-21T08:12:24.885Z,25.37
2018-10-21T08:14:52.426Z,24.43
2018-10-21T08:17:19.710Z,22.70
2018-10-21T08:19:47.077Z,27.07
2018-10-21T08:22:14.553Z,23.97
2018-10-21T08:24:41.950Z,26.57
2018-10-21T08:27:09.356Z,28.23
2018-10-21T08:29:36.761Z,23.60
2018-10-21T08:32:04.130Z,24.43
2018-10-21T08:34:31.485Z,24.53
2018-10-21T08:36:58.876Z,23.30
2018-10-21T08:39:26.353Z,20.63
2018-10-21T08:41:53.849Z,37.13
2018-10-21T08:44:21.254Z,40.47
2018-10-21T08:46:48.619Z,30.20
2018-10-21T08:49:16.071Z,42.57
2018-10-21T08:51:43.633Z,20.77
2018-10-21T08:54:11.000Z,57.30
2018-10-21T08:56:38.377Z,19.83
2018-10-21T08:59:05.798Z,118.53
2018-10-21T09:01:33.170Z,39.53
2018-10-21T09:04:00.621Z,18.63
2018-10-21T09:06:28.018Z,18.10
2018-10-21T09:08:55.410Z,22.17
2018-10-21T09:11:22.786Z,13.73
2018-10-21T09:13:50.316Z,16.33
2018-10-21T09:16:17.782Z,14.97
2018-10-21T09:18:45.073Z,16.27
2018-10-21T09:21:12.449Z,17.83
2018-10-21T09:23:39.853Z,16.37
2018-10-21T09:26:07.318Z,16.27
2018-10-21T09:28:34.795Z,13.87
2018-10-21T09:31:02.214Z,19.03
2018-10-21T09:33:29.657Z,16.10
2018-10-21T09:35:57.040Z,38.47
2018-10-21T09:38:24.532Z,48.20
2018-10-21T09:40:52.014Z,29.80
2018-10-21T09:43:19.416Z,53.53
2018-10-21T09:45:46.903Z,17.90
2018-10-21T09:48:14.333Z,18.43
2018-10-21T09:50:41.760Z,19.10
2018-10-21T09:53:09.247Z,14.57
2018-10-21T09:55:36.638Z,18.43
2018-10-21T09:58:04.258Z,17.73
2018-10-21T10:00:36.983Z,13.57
2018-10-21T10:03:06.665Z,14.67
2018-10-21T10:05:34.037Z,18.57
2018-10-21T10:08:01.421Z,16.30
2018-10-21T10:10:29.135Z,16.53
2018-10-21T10:12:56.617Z,14.07
2018-10-21T10:15:23.993Z,20.33
2018-10-21T10:17:51.442Z,22.30
2018-10-21T10:20:18.902Z,27.93
2018-10-21T10:22:46.372Z,17.87
2018-10-21T10:25:13.938Z,17.87
2018-10-21T10:27:41.728Z,17.73
2018-10-21T10:30:10.608Z,16.10
2018-10-21T10:32:38.384Z,19.27
2018-10-21T10:35:06.267Z,18.70
2018-10-21T10:37:33.624Z,19.23
2018-10-21T10:40:01.069Z,19.40
2018-10-21T10:42:28.486Z,21.80
2018-10-21T10:44:55.852Z,18.17
2018-10-21T10:47:23.296Z,15.87
2018-10-21T10:49:50.677Z,19.57
2018-10-21T10:52:18.110Z,18.27
2018-10-21T11:10:39.533Z,20.10
2018-10-21T11:13:07.042Z,19.20
2018-10-21T11:15:34.401Z,19.80
2018-10-21T11:18:01.856Z,21.73
2018-10-21T11:20:29.236Z,16.90
2018-10-21T11:22:56.727Z,16.70
2018-10-21T11:25:24.092Z,17.67
2018-10-21T11:27:51.645Z,16.67
2018-10-21T11:30:20.068Z,19.77
2018-10-21T11:32:47.893Z,16.53
2018-10-21T11:35:15.336Z,17.60
2018-10-21T11:37:42.731Z,14.73
2018-10-21T11:40:10.246Z,17.33
2018-10-21T11:42:37.569Z,16.57
2018-10-21T11:45:05.801Z,16.53
2018-10-21T11:47:33.369Z,16.00
2018-10-21T11:50:00.749Z,16.87
2018-10-21T11:52:28.193Z,17.00
2018-10-21T11:54:55.636Z,14.67
2018-10-21T11:57:23.437Z,17.67
2018-10-21T11:59:50.945Z,13.60
2018-10-21T12:02:18.457Z,14.23
2018-10-21T12:04:46.282Z,40.57
2018-10-21T12:07:13.843Z,16.13
2018-10-21T12:09:41.240Z,15.03
2018-10-21T12:12:08.729Z,13.67
2018-10-21T12:14:36.222Z,13.70
2018-10-21T12:17:03.654Z,13.97
2018-10-21T12:19:31.140Z,16.37
2018-10-21T12:21:58.565Z,19.57
2018-10-21T12:24:25.957Z,17.57
2018-10-21T12:26:53.342Z,17.13
2018-10-21T12:29:20.805Z,17.13
2018-10-21T12:31:48.117Z,15.60
2018-10-21T12:34:15.606Z,18.93
2018-10-21T12:36:42.936Z,15.43
2018-10-21T12:39:11.322Z,16.17
2018-10-21T12:41:39.252Z,20.60
2018-10-21T12:44:06.629Z,16.93
2018-10-21T12:46:34.034Z,17.40
2018-10-21T12:49:01.546Z,15.70
2018-10-21T12:51:28.894Z,21.37
2018-10-21T12:53:56.474Z,18.77
2018-10-21T12:56:23.865Z,17.33
2018-10-21T12:58:51.212Z,14.70
2018-10-21T13:01:18.724Z,16.27
2018-10-21T13:03:46.137Z,14.57
2018-10-21T13:06:13.549Z,16.67
2018-10-21T13:08:40.998Z,22.07
2018-10-21T13:11:08.532Z,16.20
2018-10-21T13:13:36.326Z,17.27
2018-10-21T13:16:03.757Z,18.27
2018-10-21T13:18:31.197Z,19.33
2018-10-21T13:20:58.740Z,17.77
2018-10-21T13:23:26.127Z,15.53
2018-10-21T13:25:53.474Z,18.47
2018-10-21T13:28:21.065Z,15.83
2018-10-21T13:30:48.390Z,17.67
2018-10-21T13:33:15.925Z,22.90
2018-10-21T13:35:43.425Z,24.13
2018-10-21T13:38:11.169Z,16.07
2018-10-21T13:40:38.588Z,20.97
2018-10-21T13:43:06.049Z,17.77
2018-10-21T13:45:33.444Z,18.00
2018-10-21T13:48:00.866Z,19.17
2018-10-21T13:50:28.335Z,15.90
2018-10-21T13:52:55.830Z,18.13
2018-10-21T13:55:23.181Z,16.43
2018-10-21T13:57:50.584Z,18.83
2018-10-21T14:00:18.033Z,17.63
2018-10-21T14:02:45.448Z,17.07
2018-10-21T14:05:12.837Z,20.17
2018-10-21T14:07:40.389Z,18.13
2018-10-21T14:10:08.025Z,18.03
2018-10-21T14:12:35.436Z,18.33
2018-10-21T14:15:03.175Z,17.87
2018-10-21T14:17:30.677Z,19.77
2018-10-21T14:19:58.113Z,16.27
2018-10-21T14:22:25.548Z,17.77
2018-10-21T14:24:53.040Z,18.93
2018-10-21T14:27:20.404Z,19.63
2018-10-21T14:29:47.872Z,19.27
2018-10-21T14:32:15.201Z,20.10
2018-10-21T14:34:42.629Z,19.13
2018-10-21T14:37:10.043Z,19.63
2018-10-21T14:39:37.461Z,15.67
2018-10-21T14:42:05.160Z,18.87
2018-10-21T14:44:32.532Z,21.80
2018-10-21T14:47:00.155Z,23.97
2018-10-21T14:49:27.521Z,20.93
2018-10-21T14:51:55.024Z,17.57
2018-10-21T14:54:22.414Z,20.60
2018-10-21T14:56:49.830Z,19.50
2018-10-21T14:59:17.270Z,18.83
2018-10-21T15:01:44.820Z,20.63
2018-10-21T15:04:12.351Z,20.23
2018-10-21T15:06:39.878Z,19.77
2018-10-21T15:09:09.260Z,25.10
2018-10-21T15:11:36.666Z,22.33
2018-10-21T15:14:04.292Z,19.97
2018-10-21T15:16:31.901Z,19.83
2018-10-21T15:18:59.553Z,21.87
2018-10-21T15:21:27.812Z,23.93
2018-10-21T15:23:55.661Z,25.60
2018-10-21T15:26:23.652Z,28.53
2018-10-21T15:28:51.201Z,30.37
2018-10-21T15:31:18.589Z,23.57
2018-10-21T15:33:46.117Z,26.07
2018-10-21T15:36:13.554Z,26.77
2018-10-21T15:38:40.932Z,23.97
2018-10-21T15:41:08.637Z,27.87
2018-10-21T15:43:36.022Z,25.70
2018-10-21T15:46:03.520Z,25.97
2018-10-21T15:48:30.990Z,27.67
2018-10-21T15:50:58.466Z,27.07
2018-10-21T15:53:25.961Z,26.53
2018-10-21T15:55:53.360Z,27.63
2018-10-21T15:58:20.915Z,32.20
2018-10-21T16:00:48.397Z,32.77
2018-10-21T16:03:15.958Z,34.20
2018-10-21T16:05:43.380Z,30.30
2018-10-21T16:08:10.780Z,37.17
2018-10-21T16:10:38.166Z,37.63
2018-10-21T16:13:06.403Z,33.07
2018-10-21T16:15:33.990Z,32.07
2018-10-21T16:18:01.702Z,32.27
2018-10-21T16:20:29.220Z,33.13
2018-10-21T16:22:56.629Z,34.43
2018-10-21T16:25:24.050Z,37.67
2018-10-21T16:27:51.817Z,33.27
2018-10-21T16:30:19.181Z,34.63
2018-10-21T16:32:46.659Z,34.87
2018-10-21T16:35:14.378Z,38.90
2018-10-21T16:37:41.989Z,33.03
2018-10-21T16:40:11.437Z,43.13
2018-10-21T16:42:39.758Z,39.97
2018-10-21T16:45:07.777Z,41.97
2018-10-21T16:47:36.433Z,38.83
2018-10-21T16:50:04.967Z,42.47
2018-10-21T16:52:33.387Z,38.67
2018-10-21T16:55:02.167Z,47.70
2018-10-21T16:57:30.887Z,39.00
2018-10-21T16:59:59.514Z,44.77
2018-10-21T17:02:28.448Z,47.97
2018-10-21T17:04:57.096Z,46.13
2018-10-21T17:07:25.335Z,45.43
2018-10-21T17:09:54.366Z,49.93
2018-10-21T17:12:22.898Z,51.57
2018-10-21T17:14:50.621Z,50.43
2018-10-21T17:17:18.503Z,47.37
2018-10-21T17:19:45.977Z,58.83
2018-10-21T17:22:13.564Z,62.00
2018-10-21T17:24:40.941Z,62.03
2018-10-21T17:27:09.441Z,57.93
2018-10-21T17:29:36.857Z,58.30
2018-10-21T17:32:04.247Z,58.03
2018-10-21T17:34:31.721Z,59.27
2018-10-21T17:36:59.199Z,64.03
2018-10-21T17:39:26.634Z,59.70
2018-10-21T17:41:54.216Z,59.50
2018-10-21T17:44:21.624Z,61.53
2018-10-21T17:46:49.110Z,58.67
2018-10-21T17:49:16.552Z,61.00
2018-10-21T17:51:44.106Z,56.97
2018-10-21T17:54:11.501Z,52.67
2018-10-21T17:56:44.361Z,58.40
2018-10-21T17:59:11.993Z,60.40
2018-10-21T18:01:39.420Z,153.93
2018-10-21T18:04:07.080Z,120.00
2018-10-21T18:06:34.555Z,99.77
2018-10-21T18:09:01.937Z,87.30
2018-10-21T18:11:29.720Z,57.97
2018-10-21T18:13:57.437Z,57.90
2018-10-21T18:16:24.969Z,55.67
2018-10-21T18:18:52.471Z,66.17
2018-10-21T18:21:20.045Z,72.53
2018-10-21T18:23:47.592Z,68.20
2018-10-21T18:26:15.254Z,56.40
2018-10-21T18:28:42.629Z,60.33
2018-10-21T18:31:10.257Z,66.73
2018-10-21T18:33:37.733Z,61.83
2018-10-21T18:36:05.374Z,67.07
2018-10-21T18:38:33.088Z,66.77
2018-10-21T18:41:00.586Z,60.77
2018-10-21T18:43:28.122Z,64.87
2018-10-21T18:45:55.583Z,56.27
2018-10-21T18:48:23.065Z,61.37
2018-10-21T18:50:50.566Z,59.63
2018-10-21T18:53:18.193Z,60.93
2018-10-21T18:55:45.621Z,60.73
2018-10-21T18:58:13.076Z,61.80
2018-10-21T19:00:40.658Z,63.53
2018-10-21T19:03:08.089Z,65.83
2018-10-21T19:05:35.699Z,92.73
2018-10-21T19:08:03.287Z,71.63
2018-10-21T19:10:31.657Z,63.57
2018-10-21T19:13:00.056Z,66.30
2018-10-21T19:15:26.672Z,60.13
2018-10-21T19:17:54.255Z,65.40
2018-10-21T19:20:21.767Z,57.37
2018-10-21T19:22:49.365Z,62.03
2018-10-21T19:25:17.315Z,63.17
2018-10-21T19:27:45.477Z,57.53
2018-10-21T19:30:13.560Z,60.10
2018-10-21T19:32:41.661Z,60.00
2018-10-21T19:35:10.375Z,55.70
2018-10-21T19:37:37.754Z,59.50
2018-10-21T19:40:05.950Z,61.97
2018-10-21T19:42:33.252Z,58.73
2018-10-21T19:45:00.845Z,53.60
2018-10-21T19:47:28.517Z,59.87
2018-10-21T19:49:55.958Z,58.23
2018-10-21T19:52:23.296Z,57.47
2018-10-21T19:54:50.950Z,55.03
2018-10-21T19:57:18.429Z,62.10
2018-10-21T19:59:45.874Z,75.47
2018-10-21T20:02:13.284Z,103.07
2018-10-21T20:04:40.645Z,87.20
2018-10-21T20:07:08.018Z,89.23
2018-10-21T20:09:35.880Z,103.37
2018-10-21T20:12:03.365Z,85.73
2018-10-21T20:14:30.792Z,74.77
2018-10-21T20:16:58.213Z,82.57
2018-10-21T20:19:25.769Z,72.10
2018-10-21T20:21:53.273Z,81.90
2018-10-21T20:24:20.755Z,87.13
2018-10-21T20:26:48.285Z,90.37
2018-10-21T20:29:15.651Z,94.47
2018-10-21T20:31:43.033Z,88.90
2018-10-21T20:34:10.486Z,91.97
2018-10-21T20:36:38.130Z,94.70
2018-10-21T20:39:07.097Z,85.37
2018-10-21T20:41:34.581Z,93.77
2018-10-21T20:44:01.971Z,79.27
2018-10-21T20:46:29.387Z,85.83
2018-10-21T20:48:56.756Z,79.73
2018-10-21T20:51:24.199Z,74.07
2018-10-21T20:53:51.549Z,81.87
2018-10-21T20:56:18.901Z,81.13
2018-10-21T20:58:46.344Z,86.40
2018-10-21T21:01:13.737Z,79.13
2018-10-21T21:03:41.133Z,84.77
2018-10-21T21:06:08.542Z,85.63
2018-10-21T21:08:35.971Z,74.97
2018-10-21T21:11:03.357Z,73.13
2018-10-21T21:13:30.733Z,65.50
2018-10-21T21:15:58.162Z,77.40
2018-10-21T21:18:25.597Z,65.37
2018-10-21T21:20:53.069Z,73.17
2018-10-21T21:23:20.778Z,77.37
2018-10-21T21:25:48.124Z,77.93
2018-10-21T21:28:15.682Z,81.63
2018-10-21T21:30:43.148Z,82.70
2018-10-21T21:33:10.956Z,80.57
2018-10-21T21:35:38.316Z,79.07
2018-10-21T21:38:05.858Z,89.57
2018-10-21T21:40:33.209Z,90.00
2018-10-21T21:43:00.592Z,88.03
2018-10-21T21:45:27.969Z,91.83
2018-10-21T21:47:55.344Z,95.27
2018-10-21T21:50:22.748Z,98.43
2018-10-21T21:52:50.256Z,91.37
2018-10-21T21:55:17.603Z,84.50
2018-10-21T21:57:45.005Z,88.67
2018-10-21T22:00:13.528Z,79.50
2018-10-21T22:02:40.984Z,90.30
2018-10-21T22:05:08.778Z,87.80
2018-10-21T22:07:36.969Z,95.03
2018-10-21T22:10:04.385Z,95.70
2018-10-21T22:12:31.798Z,90.70
2018-10-21T22:14:59.177Z,86.23
2018-10-21T22:17:26.576Z,96.63
2018-10-21T22:19:53.997Z,89.10
2018-10-21T22:22:21.381Z,91.27
2018-10-21T22:24:48.756Z,99.70
2018-10-21T22:27:16.121Z,94.13
2018-10-21T22:29:43.565Z,101.73
2018-10-21T22:32:10.953Z,93.63
2018-10-21T22:34:38.304Z,91.93
2018-10-21T22:37:05.727Z,89.40
2018-10-21T22:39:33.125Z,85.50
2018-10-21T22:42:00.615Z,82.23
2018-10-21T22:44:28.013Z,87.33
2018-10-21T22:46:55.389Z,81.57
2018-10-21T22:49:22.777Z,79.67
2018-10-21T22:51:50.166Z,79.30
2018-10-21T22:54:17.653Z,71.80
2018-10-21T22:56:44.920Z,75.53
2018-10-21T22:59:12.495Z,94.17
2018-10-21T23:01:39.868Z,80.13
2018-10-21T23:04:07.397Z,77.97
2018-10-21T23:06:34.774Z,78.33
2018-10-21T23:09:02.236Z,73.23
2018-10-21T23:11:29.622Z,81.53
2018-10-21T23:13:57.019Z,75.60
2018-10-21T23:16:24.408Z,86.03
2018-10-21T23:18:56.206Z,78.53
2018-10-21T23:21:23.595Z,76.50
2018-10-21T23:23:51.143Z,79.80
2018-10-21T23:26:18.508Z,81.27
2018-10-21T23:28:45.922Z,79.97
2018-10-21T23:31:13.331Z,74.90
2018-10-21T23:33:40.653Z,77.77
2018-10-21T23:36:08.067Z,82.20
2018-10-21T23:38:35.428Z,67.07
2018-10-21T23:41:02.896Z,81.63
2018-10-21T23:43:30.281Z,78.67
2018-10-21T23:45:57.755Z,86.23
2018-10-21T23:48:25.114Z,81.53
2018-10-21T23:50:52.517Z,77.73
2018-10-21T23:53:19.884Z,84.87
2018-10-21T23:55:47.257Z,76.97
2018-10-21T23:58:14.677Z,80.33
